Weather at Masonry Field

Public forecast

Using degrees Fahrenheit for public forecast. Weather courtesy of forecast.io.

Closest aviation weather report (METAR) to Masonry Field

Closest report is Glacier Park International Airport, 14.2 nm (26.4 km) NNW. Retrieved 2022/01/29 06:55 UTC (58 minutes ago):

KGPI 290655Z AUTO 22004KT 6SM BR OVC004 M07/M08 A3034 RMK AO2 SLP317 T10671078 410221094

Closest aviation forecast (TAF) to Masonry Field

Closest forecast is Glacier Park International Airport, 14.2 nm (26.4 km) NNW. Retrieved 2022/01/29 06:22 UTC (2 hours ago):

TAF KGPI 290520Z 2906/3006 00000KT 6SM BR OVC009 FM290900 00000KT 3SM BR OVC007